Time;durP1;ratioP1;P1;durP2;ratioP2;P2;SDS_P1;SDS_P2;PMS_P1;PMS_P2;Temp;Humidity;BMP_temperature;BMP_pressure;BME280_temperature;BME280_humidity;BME280_pressure;Samples;Min_cycle;Max_cycle;Signal;HPM_P1;HPM_P2
2022/05/29 00:01:06;;;;;;;3.53;0.93;;;19.50;66.60;;;;;;6250299;22;20007;-78
2022/05/29 00:03:32;;;;;;;1.83;0.70;;;19.60;66.30;;;;;;6276866;22;20008;-78
2022/05/29 00:05:58;;;;;;;2.97;1.20;;;19.50;65.40;;;;;;6277816;22;20067;-78
2022/05/29 00:08:30;;;;;;;2.10;0.93;;;19.50;65.20;;;;;;6277541;22;20079;-77
2022/05/29 00:10:58;;;;;;;2.65;1.20;;;19.50;64.10;;;;;;6277833;22;20003;-78
2022/05/29 00:13:24;;;;;;;2.72;1.00;;;19.40;65.00;;;;;;6277146;22;20000;-78
2022/05/29 00:15:51;;;;;;;1.00;0.70;;;19.40;65.80;;;;;;6277085;22;20091;-78
2022/05/29 00:18:17;;;;;;;2.25;1.17;;;19.40;65.80;;;;;;6276349;22;20000;-78
2022/05/29 00:20:47;;;;;;;1.30;0.88;;;19.40;65.70;;;;;;6249562;22;20057;-78
2022/05/29 00:23:13;;;;;;;1.70;0.65;;;19.40;66.20;;;;;;6277295;22;20004;-78
2022/05/29 00:25:39;;;;;;;1.73;0.80;;;19.50;66.10;;;;;;6276884;22;20372;-78
2022/05/29 00:28:05;;;;;;;1.95;0.90;;;19.50;65.60;;;;;;6276079;22;20007;-78
2022/05/29 00:30:31;;;;;;;2.97;1.30;;;19.50;65.50;;;;;;6276884;22;20000;-80
2022/05/29 00:32:57;;;;;;;1.35;0.90;;;19.40;64.90;;;;;;6276494;22;20497;-80
2022/05/29 00:35:22;;;;;;;3.10;0.80;;;19.40;65.10;;;;;;6276338;22;19996;-80
2022/05/29 00:37:48;;;;;;;2.80;1.00;;;19.30;64.50;;;;;;6276789;22;20003;-80
2022/05/29 00:40:31;;;;;;;1.75;1.00;;;19.30;65.20;;;;;;6277626;22;20004;-80
2022/05/29 00:42:57;;;;;;;1.33;0.73;;;19.30;64.70;;;;;;6277081;22;20004;-80
2022/05/29 00:45:24;;;;;;;1.92;0.85;;;19.30;65.00;;;;;;6277052;22;20057;-80
2022/05/29 00:47:50;;;;;;;3.35;1.20;;;19.30;64.80;;;;;;6276480;22;20007;-80
2022/05/29 00:50:20;;;;;;;1.75;1.05;;;19.20;64.00;;;;;;6277327;22;20007;-81
2022/05/29 00:52:46;;;;;;;3.75;1.10;;;19.20;64.60;;;;;;6277098;22;20019;-80
2022/05/29 00:55:18;;;;;;;1.63;0.93;;;19.10;64.40;;;;;;6276070;22;19999;-80
2022/05/29 00:57:54;;;;;;;1.63;0.77;;;19.20;64.50;;;;;;6277166;22;20027;-80
2022/05/29 01:00:25;;;;;;;1.27;0.50;;;19.30;64.40;;;;;;6277007;22;20011;-78
2022/05/29 01:02:51;;;;;;;3.58;1.00;;;19.40;64.30;;;;;;6248311;22;20014;-77
2022/05/29 01:05:19;;;;;;;3.17;1.00;;;19.40;63.10;;;;;;6276856;22;19999;-77
2022/05/29 01:08:20;;;;;;;1.30;0.68;;;19.40;63.10;;;;;;6276721;22;20067;-76
2022/05/29 01:10:48;;;;;;;1.05;0.60;;;19.40;62.80;;;;;;6243612;22;20008;-77
2022/05/29 01:13:53;;;;;;;2.63;0.88;;;19.30;63.00;;;;;;6276374;22;20000;-77
2022/05/29 01:16:28;;;;;;;2.05;0.60;;;19.40;62.60;;;;;;6182622;23;20059;-79
2022/05/29 01:19:12;;;;;;;0.90;0.57;;;19.50;62.40;;;;;;6245373;23;20000;-80
2022/05/29 01:22:02;;;;;;;0.93;0.55;;;19.40;62.10;;;;;;6245907;23;20004;-80
2022/05/29 01:24:45;;;;;;;1.98;0.95;;;19.50;62.90;;;;;;6245146;23;20000;-80
2022/05/29 01:27:25;;;;;;;1.15;0.60;;;19.50;62.40;;;;;;6245982;23;20014;-79
2022/05/29 01:30:05;;;;;;;2.15;1.13;;;19.50;62.20;;;;;;6245879;23;19996;-80
2022/05/29 01:32:55;;;;;;;1.20;0.60;;;19.40;61.40;;;;;;6218842;23;20285;-80
2022/05/29 01:35:50;;;;;;;1.57;0.87;;;19.40;61.90;;;;;;6219242;23;20001;-81
2022/05/29 01:38:22;;;;;;;1.75;0.85;;;19.50;61.80;;;;;;6217363;23;20223;-81
2022/05/29 01:41:06;;;;;;;1.35;0.65;;;19.50;61.80;;;;;;6219120;23;20004;-81
2022/05/29 01:43:43;;;;;;;1.75;0.60;;;19.50;61.40;;;;;;6245932;23;20015;-79
2022/05/29 01:46:16;;;;;;;8.32;1.25;;;19.50;62.30;;;;;;6245838;23;20011;-78
2022/05/29 01:49:04;;;;;;;2.65;1.27;;;19.30;61.20;;;;;;6244843;23;20004;-78
2022/05/29 01:51:35;;;;;;;1.13;0.60;;;19.20;62.20;;;;;;6245096;23;19997;-78
2022/05/29 01:54:17;;;;;;;1.60;0.70;;;19.30;63.20;;;;;;6218507;23;20031;-78
2022/05/29 01:56:50;;;;;;;1.02;0.70;;;19.20;62.90;;;;;;6245821;23;20075;-78
2022/05/29 01:59:23;;;;;;;2.03;0.68;;;19.20;63.60;;;;;;6218119;23;20372;-78
2022/05/29 02:01:56;;;;;;;1.20;0.90;;;19.30;64.50;;;;;;6218110;23;20121;-78
2022/05/29 02:04:25;;;;;;;1.35;1.13;;;19.40;65.00;;;;;;6245649;23;19996;-80
2022/05/29 02:09:42;;;;;;;1.83;1.05;;;19.20;65.00;;;;;;6243813;23;20063;-80
2022/05/29 02:12:16;;;;;;;2.33;1.08;;;19.20;66.00;;;;;;6244668;23;20008;-80
2022/05/29 02:14:54;;;;;;;1.70;1.00;;;19.30;65.40;;;;;;6245272;23;19996;-80
2022/05/29 02:17:26;;;;;;;2.40;1.10;;;19.30;65.40;;;;;;6276037;22;20422;-80
2022/05/29 02:20:00;;;;;;;3.95;1.35;;;19.30;65.50;;;;;;6248880;22;20073;-82
2022/05/29 02:22:29;;;;;;;2.95;1.20;;;18.90;66.30;;;;;;6275731;22;19999;-80
2022/05/29 02:25:15;;;;;;;1.83;1.02;;;18.60;67.30;;;;;;6276242;22;20059;-80
2022/05/29 02:28:03;;;;;;;3.30;1.50;;;18.70;67.20;;;;;;6276330;22;20079;-80
2022/05/29 02:30:57;;;;;;;1.17;0.82;;;18.60;67.70;;;;;;6275658;22;20031;-80
2022/05/29 02:33:31;;;;;;;3.75;0.90;;;18.60;68.40;;;;;;6275852;22;20066;-80
2022/05/29 02:36:24;;;;;;;2.90;1.40;;;18.80;67.80;;;;;;6275358;22;19996;-80
2022/05/29 02:39:13;;;;;;;1.80;0.95;;;18.90;68.50;;;;;;6249215;22;20000;-79
2022/05/29 02:41:48;;;;;;;1.55;1.00;;;18.90;68.40;;;;;;6276082;22;19991;-80
2022/05/29 02:44:39;;;;;;;3.05;1.30;;;19.00;68.10;;;;;;6275341;22;20015;-79
2022/05/29 02:47:23;;;;;;;3.10;1.10;;;18.90;67.30;;;;;;6275755;22;20446;-80
2022/05/29 02:50:23;;;;;;;2.30;0.80;;;19.00;67.90;;;;;;6275705;22;20129;-79
2022/05/29 02:52:52;;;;;;;2.00;0.80;;;18.90;68.30;;;;;;6248872;22;19999;-79
2022/05/29 02:55:19;;;;;;;1.48;0.90;;;19.00;68.00;;;;;;6275761;22;19996;-78
2022/05/29 02:57:45;;;;;;;1.42;1.00;;;19.10;68.10;;;;;;6275497;22;20010;-77
2022/05/29 03:00:12;;;;;;;1.40;1.00;;;19.00;67.80;;;;;;6275687;22;20004;-78
2022/05/29 03:02:41;;;;;;;2.58;1.30;;;18.90;68.10;;;;;;6275585;22;20003;-80
2022/05/29 03:05:28;;;;;;;2.13;1.20;;;18.80;68.50;;;;;;6276351;22;19999;-80
2022/05/29 03:08:03;;;;;;;1.25;0.90;;;18.90;68.60;;;;;;6248361;22;20035;-80
2022/05/29 03:11:13;;;;;;;3.03;1.33;;;18.90;68.50;;;;;;6275574;22;20054;-80
2022/05/29 03:13:56;;;;;;;4.40;1.80;;;18.90;68.00;;;;;;6275671;22;20006;-80
2022/05/29 03:16:36;;;;;;;1.98;1.10;;;18.60;69.10;;;;;;6275034;22;20118;-81
2022/05/29 03:19:27;;;;;;;;;;;18.70;69.10;;;;;;6248684;22;20014;-80
2022/05/29 03:22:15;;;;;;;2.20;1.00;;;18.70;68.90;;;;;;6275110;22;19978;-79
2022/05/29 03:25:03;;;;;;;1.80;1.00;;;18.50;69.00;;;;;;6275349;22;20087;-79
2022/05/29 03:27:45;;;;;;;3.10;1.30;;;18.60;69.10;;;;;;6275001;22;20065;-81
2022/05/29 03:30:32;;;;;;;1.33;0.95;;;18.60;69.00;;;;;;6276063;22;20000;-80
2022/05/29 03:33:01;;;;;;;2.80;1.02;;;18.60;69.30;;;;;;6276797;22;20437;-81
2022/05/29 03:35:45;;;;;;;1.23;0.98;;;18.50;69.30;;;;;;6250444;22;20008;-78
2022/05/29 03:38:11;;;;;;;1.05;0.80;;;18.50;69.30;;;;;;6276914;22;20004;-79
2022/05/29 03:40:39;;;;;;;1.00;0.88;;;18.70;69.90;;;;;;6276537;22;20004;-78
2022/05/29 03:43:05;;;;;;;1.85;1.13;;;18.60;69.00;;;;;;6250070;22;20505;-77
2022/05/29 03:45:31;;;;;;;1.48;0.95;;;18.60;69.10;;;;;;6276173;22;20089;-79
2022/05/29 03:47:57;;;;;;;1.80;1.00;;;18.80;68.90;;;;;;6249130;22;20008;-79
2022/05/29 03:50:24;;;;;;;1.02;0.73;;;18.80;68.20;;;;;;6276918;22;20440;-78
2022/05/29 03:52:50;;;;;;;2.53;1.50;;;18.90;68.40;;;;;;6276869;22;20019;-79
2022/05/29 03:55:20;;;;;;;1.38;1.00;;;18.90;68.20;;;;;;6276754;22;20379;-79
2022/05/29 03:57:46;;;;;;;1.65;1.25;;;18.90;68.50;;;;;;6276251;22;20004;-79
2022/05/29 04:00:13;;;;;;;3.50;2.10;;;18.80;69.20;;;;;;6276330;22;20009;-79
2022/05/29 04:02:40;;;;;;;2.60;1.50;;;18.60;69.40;;;;;;6276745;22;20000;-78
2022/05/29 04:05:07;;;;;;;1.23;0.90;;;18.30;70.00;;;;;;6249770;22;20089;-78
2022/05/29 04:13:02;;;;;;;3.30;1.33;;;18.50;69.00;;;;;;6276718;22;20011;-78
2022/05/29 04:15:28;;;;;;;2.00;0.95;;;18.50;69.50;;;;;;6276416;22;20007;-79
2022/05/29 04:17:54;;;;;;;1.17;0.98;;;18.30;69.60;;;;;;6276658;22;20050;-79
2022/05/29 04:20:21;;;;;;;2.30;0.82;;;18.50;69.40;;;;;;6250010;22;20426;-78
2022/05/29 04:22:47;;;;;;;1.30;0.90;;;18.60;69.40;;;;;;6276593;22;19996;-78
2022/05/29 04:25:13;;;;;;;1.55;1.00;;;18.70;69.00;;;;;;6249377;22;20019;-79
2022/05/29 04:27:39;;;;;;;1.80;1.02;;;18.80;68.70;;;;;;6248737;22;20003;-78
2022/05/29 04:30:06;;;;;;;1.08;0.98;;;18.80;68.20;;;;;;6276016;22;20003;-77
2022/05/29 04:35:15;;;;;;;3.15;1.48;;;18.90;68.20;;;;;;6276846;22;20026;-79
2022/05/29 04:37:41;;;;;;;0.98;0.70;;;19.00;67.90;;;;;;6249272;22;20501;-79
2022/05/29 04:40:07;;;;;;;4.78;1.30;;;19.00;68.60;;;;;;6275087;22;20008;-78
2022/05/29 04:42:34;;;;;;;1.10;0.93;;;19.00;68.20;;;;;;6276326;22;20030;-78
2022/05/29 04:45:00;;;;;;;2.95;0.90;;;19.00;68.30;;;;;;6276567;22;20038;-78
2022/05/29 04:47:26;;;;;;;2.40;1.10;;;19.10;68.20;;;;;;6279448;22;20003;-81
2022/05/29 04:49:51;;;;;;;1.85;1.25;;;19.20;67.70;;;;;;6280972;22;20360;-86
2022/05/29 04:52:17;;;;;;;2.17;1.23;;;19.20;67.00;;;;;;6280071;22;20438;-84
2022/05/29 04:54:43;;;;;;;2.38;1.20;;;19.20;65.50;;;;;;6279419;22;19996;-85
2022/05/29 04:57:10;;;;;;;1.85;1.20;;;19.20;65.20;;;;;;6281386;22;20026;-84
2022/05/29 04:59:36;;;;;;;1.95;0.90;;;19.30;65.50;;;;;;6284442;22;20414;-85
2022/05/29 05:02:03;;;;;;;0.93;0.70;;;19.00;65.50;;;;;;6284311;22;20004;-84
2022/05/29 05:04:29;;;;;;;1.60;1.02;;;19.10;65.80;;;;;;6278603;22;20053;-85
2022/05/29 05:06:56;;;;;;;2.20;1.00;;;19.10;65.20;;;;;;6279275;22;20023;-82
2022/05/29 05:09:22;;;;;;;2.15;1.00;;;19.00;65.60;;;;;;6277833;22;20460;-84
2022/05/29 05:11:51;;;;;;;1.67;1.13;;;19.00;65.50;;;;;;6277976;22;19996;-85
2022/05/29 05:14:18;;;;;;;1.00;0.65;;;19.10;65.80;;;;;;6252214;22;20006;-84
2022/05/29 05:16:44;;;;;;;1.63;0.90;;;19.10;66.00;;;;;;6278971;22;20330;-86
2022/05/29 05:19:09;;;;;;;4.65;1.27;;;19.10;65.20;;;;;;6280043;22;20000;-84
2022/05/29 05:21:36;;;;;;;1.65;0.88;;;19.10;66.10;;;;;;6280202;22;20079;-85
2022/05/29 05:24:04;;;;;;;1.77;0.90;;;19.20;65.90;;;;;;6279617;22;19999;-85
2022/05/29 05:26:29;;;;;;;1.30;0.95;;;19.20;65.90;;;;;;6252776;22;20031;-84
2022/05/29 05:28:55;;;;;;;1.35;0.85;;;19.10;65.70;;;;;;6279448;22;20011;-82
2022/05/29 05:31:21;;;;;;;1.38;0.75;;;19.10;65.60;;;;;;6279186;22;20327;-82
2022/05/29 05:33:47;;;;;;;0.93;0.60;;;19.20;65.70;;;;;;6280022;22;20020;-82
2022/05/29 05:36:14;;;;;;;0.75;0.50;;;19.20;65.20;;;;;;6278270;22;20027;-83
2022/05/29 05:38:39;;;;;;;0.82;0.70;;;19.20;65.10;;;;;;6278487;22;20426;-83
2022/05/29 05:41:09;;;;;;;1.67;0.73;;;19.30;64.80;;;;;;6278318;22;20000;-84
2022/05/29 05:43:35;;;;;;;2.10;0.90;;;19.30;64.50;;;;;;6278481;22;19999;-83
2022/05/29 05:46:00;;;;;;;1.17;0.85;;;19.40;63.90;;;;;;6277856;22;20015;-86
2022/05/29 05:48:29;;;;;;;1.77;0.63;;;19.30;63.60;;;;;;6279732;22;20295;-85
2022/05/29 05:50:58;;;;;;;4.68;1.40;;;19.30;63.70;;;;;;6277019;22;20027;-79
2022/05/29 05:53:24;;;;;;;4.95;1.10;;;19.20;62.60;;;;;;6276171;22;20034;-79
2022/05/29 05:55:50;;;;;;;3.63;1.08;;;19.10;63.50;;;;;;6275222;22;19996;-79
2022/05/29 05:58:15;;;;;;;2.42;1.00;;;19.10;63.20;;;;;;6275595;22;20004;-78
2022/05/29 06:00:44;;;;;;;2.20;0.70;;;19.10;63.00;;;;;;6275877;22;20031;-78
2022/05/29 06:03:09;;;;;;;1.77;0.80;;;19.20;63.90;;;;;;6248863;22;20007;-79
2022/05/29 06:05:35;;;;;;;1.83;0.95;;;19.30;63.20;;;;;;6275568;22;20318;-76
2022/05/29 06:08:01;;;;;;;2.53;0.80;;;19.30;62.50;;;;;;6276001;22;19999;-76
2022/05/29 06:10:27;;;;;;;1.70;0.80;;;19.30;63.40;;;;;;6276000;22;20364;-73
2022/05/29 06:12:53;;;;;;;1.13;0.73;;;19.40;63.50;;;;;;6271619;22;20315;-74
2022/05/29 06:15:18;;;;;;;5.07;0.73;;;19.30;63.60;;;;;;6272695;22;20381;-74
2022/05/29 06:17:44;;;;;;;3.33;1.00;;;19.40;63.80;;;;;;6274129;22;20031;-74
2022/05/29 06:20:12;;;;;;;1.80;0.93;;;19.50;63.20;;;;;;6247956;22;20000;-78
2022/05/29 06:22:46;;;;;;;5.07;0.90;;;19.40;62.60;;;;;;6274906;22;20000;-79
2022/05/29 06:25:12;;;;;;;1.17;0.70;;;19.50;62.50;;;;;;6275065;22;20007;-79
2022/05/29 06:27:40;;;;;;;1.60;0.80;;;19.50;62.30;;;;;;6248339;22;20442;-74
2022/05/29 06:30:08;;;;;;;1.02;0.68;;;19.60;62.00;;;;;;6274066;22;20081;-75
2022/05/29 06:32:37;;;;;;;1.77;1.02;;;19.60;62.50;;;;;;6275992;22;20006;-80
2022/05/29 06:35:05;;;;;;;1.05;0.82;;;19.40;61.80;;;;;;6276009;22;20006;-77
2022/05/29 06:37:31;;;;;;;1.38;0.65;;;19.50;60.70;;;;;;6275901;22;20445;-78
2022/05/29 06:39:58;;;;;;;1.13;0.80;;;19.50;60.90;;;;;;6247518;22;20996;-75
2022/05/29 06:42:24;;;;;;;3.55;1.33;;;19.60;60.90;;;;;;6274477;22;20079;-75
2022/05/29 06:44:50;;;;;;;3.00;1.10;;;19.60;60.90;;;;;;6274161;22;20008;-77
2022/05/29 06:47:17;;;;;;;1.38;0.82;;;19.60;59.40;;;;;;6274445;22;20081;-77
2022/05/29 06:49:42;;;;;;;1.10;0.77;;;19.70;60.70;;;;;;6274192;22;20045;-77
2022/05/29 06:52:10;;;;;;;1.85;0.93;;;19.50;59.80;;;;;;6275879;22;20403;-77
2022/05/29 06:54:36;;;;;;;2.92;1.10;;;19.40;59.70;;;;;;6275225;22;20002;-77
2022/05/29 06:57:03;;;;;;;2.35;0.90;;;19.50;60.30;;;;;;6275663;22;20006;-77
2022/05/29 06:59:28;;;;;;;1.52;0.80;;;19.60;60.00;;;;;;6275231;22;20078;-77
2022/05/29 07:07:23;;;;;;;1.05;0.60;;;19.80;60.60;;;;;;6277745;22;20014;-77
2022/05/29 07:09:49;;;;;;;1.65;0.88;;;19.90;60.10;;;;;;6277427;22;19995;-77
2022/05/29 07:12:19;;;;;;;1.63;0.70;;;20.00;60.90;;;;;;6277704;22;20004;-77
2022/05/29 07:14:56;;;;;;;2.15;0.80;;;20.00;60.30;;;;;;6277915;22;20074;-77
2022/05/29 07:17:26;;;;;;;1.05;0.57;;;20.00;60.30;;;;;;6277444;22;20392;-77
2022/05/29 07:19:52;;;;;;;1.88;0.70;;;20.00;60.10;;;;;;6277618;22;20007;-77
2022/05/29 07:22:18;;;;;;;1.40;0.90;;;20.10;59.90;;;;;;6277860;22;20008;-77
2022/05/29 07:24:43;;;;;;;2.58;0.98;;;20.10;60.00;;;;;;6277738;22;20023;-76
2022/05/29 07:27:09;;;;;;;5.43;0.90;;;20.10;58.20;;;;;;6277564;22;19999;-77
2022/05/29 07:29:35;;;;;;;3.75;1.10;;;19.90;59.30;;;;;;6276803;22;20004;-78
2022/05/29 07:32:02;;;;;;;1.85;1.02;;;19.80;59.50;;;;;;6277390;22;20011;-79
2022/05/29 07:34:28;;;;;;;3.33;0.70;;;19.80;59.40;;;;;;6250462;22;20000;-79
2022/05/29 07:37:00;;;;;;;2.25;0.85;;;19.80;59.10;;;;;;6277584;22;20050;-79
2022/05/29 07:39:26;;;;;;;2.70;0.80;;;19.90;59.30;;;;;;6277787;22;20091;-78
2022/05/29 07:44:35;;;;;;;2.78;0.80;;;19.90;58.70;;;;;;6277670;22;20014;-77
2022/05/29 07:47:01;;;;;;;1.67;0.80;;;19.90;59.20;;;;;;6277238;22;19999;-79
2022/05/29 07:49:27;;;;;;;1.67;0.60;;;19.90;58.90;;;;;;6277717;22;20004;-78
2022/05/29 07:51:53;;;;;;;2.45;0.82;;;20.00;59.40;;;;;;6249321;22;20492;-78
2022/05/29 07:54:20;;;;;;;1.92;0.70;;;20.00;58.50;;;;;;6277252;22;20085;-78
2022/05/29 07:56:46;;;;;;;1.63;0.50;;;20.10;58.80;;;;;;6277518;22;20026;-77
2022/05/29 07:59:14;;;;;;;2.53;0.80;;;20.20;59.50;;;;;;6271400;22;20003;-79
2022/05/29 08:01:39;;;;;;;2.40;0.90;;;20.30;59.10;;;;;;6275680;22;20034;-78
2022/05/29 08:04:05;;;;;;;1.80;0.60;;;20.30;59.30;;;;;;6275403;22;20000;-78
2022/05/29 08:06:31;;;;;;;1.60;0.70;;;20.30;58.90;;;;;;6277296;22;20004;-78
2022/05/29 08:08:56;;;;;;;1.38;0.88;;;20.30;59.30;;;;;;6276332;22;20082;-78
2022/05/29 08:11:22;;;;;;;0.88;0.60;;;20.30;59.50;;;;;;6276899;22;19996;-77
2022/05/29 08:13:48;;;;;;;1.75;0.68;;;20.30;59.40;;;;;;6273684;22;20437;-78
2022/05/29 08:16:16;;;;;;;2.55;0.65;;;20.40;59.30;;;;;;6275850;22;20007;-78
2022/05/29 08:18:42;;;;;;;2.15;0.80;;;20.40;58.70;;;;;;6247880;22;20035;-77
2022/05/29 08:21:08;;;;;;;11.77;1.70;;;20.50;58.70;;;;;;6248311;22;20031;-76
2022/05/29 08:23:35;;;;;;;17.33;2.60;;;20.40;57.40;;;;;;6275981;22;20007;-77
2022/05/29 08:31:29;;;;;;;1.75;0.70;;;20.30;57.80;;;;;;6274831;22;20087;-78
2022/05/29 08:33:55;;;;;;;0.80;0.50;;;20.40;58.50;;;;;;6271505;22;20417;-78
2022/05/29 08:36:24;;;;;;;4.00;1.08;;;20.50;58.20;;;;;;6274542;22;20042;-78
2022/05/29 08:38:52;;;;;;;2.30;0.70;;;20.60;58.20;;;;;;6246173;22;20072;-78
2022/05/29 08:41:29;;;;;;;1.85;0.80;;;20.80;58.50;;;;;;6274597;22;20004;-75
2022/05/29 08:43:58;;;;;;;2.55;0.80;;;21.00;59.50;;;;;;6246444;22;20094;-73
2022/05/29 08:46:53;;;;;;;2.67;0.60;;;21.10;57.50;;;;;;6273570;22;20040;-78
2022/05/29 08:49:29;;;;;;;2.28;0.98;;;21.10;57.80;;;;;;6185903;23;20023;-80
2022/05/29 08:52:15;;;;;;;1.45;0.47;;;21.20;57.30;;;;;;6187321;23;20078;-80
2022/05/29 08:55:13;;;;;;;3.05;0.80;;;21.10;57.90;;;;;;6152635;23;20008;-80
2022/05/29 08:57:55;;;;;;;2.95;0.50;;;21.20;58.30;;;;;;6212510;23;20001;-79
2022/05/29 09:00:52;;;;;;;1.65;0.80;;;21.20;57.50;;;;;;6213661;23;20032;-78
2022/05/29 09:03:24;;;;;;;3.47;0.82;;;21.30;58.10;;;;;;6212585;23;20511;-77
2022/05/29 09:06:11;;;;;;;2.10;0.65;;;21.40;58.10;;;;;;6187061;23;20506;-77
2022/05/29 09:08:51;;;;;;;2.60;0.90;;;21.60;58.00;;;;;;6185825;23;20028;-81
2022/05/29 09:11:47;;;;;;;1.23;0.50;;;21.80;56.50;;;;;;6213686;23;20072;-79
2022/05/29 09:14:25;;;;;;;2.15;0.80;;;21.90;56.20;;;;;;6212399;23;20004;-79
2022/05/29 09:16:58;;;;;;;1.65;0.80;;;22.00;57.30;;;;;;6211197;23;19997;-79
2022/05/29 09:19:24;;;;;;;1.70;0.80;;;22.20;57.10;;;;;;6212517;23;20000;-78
2022/05/29 09:22:16;;;;;;;4.25;0.80;;;22.30;55.80;;;;;;6214008;23;20008;-79
2022/05/29 09:24:48;;;;;;;2.47;0.60;;;22.20;54.50;;;;;;6199681;23;20008;-78
2022/05/29 09:27:16;;;;;;;0.93;0.82;;;22.10;53.70;;;;;;6186763;23;20441;-79
2022/05/29 09:29:42;;;;;;;2.55;0.70;;;22.10;53.70;;;;;;6213461;23;20001;-79
2022/05/29 09:32:18;;;;;;;1.27;0.60;;;22.10;54.90;;;;;;6213980;23;20051;-79
2022/05/29 09:34:56;;;;;;;1.15;0.50;;;22.10;54.10;;;;;;6213457;23;19997;-79
2022/05/29 09:37:45;;;;;;;0.63;0.50;;;22.10;54.60;;;;;;6185863;23;20012;-80
2022/05/29 09:40:16;;;;;;;0.85;0.40;;;22.10;56.10;;;;;;6212473;23;20028;-79
2022/05/29 09:42:43;;;;;;;1.85;1.10;;;22.20;55.30;;;;;;6213241;23;20009;-80
2022/05/29 09:45:32;;;;;;;0.77;0.60;;;22.20;54.20;;;;;;6188010;23;20004;-81
2022/05/29 09:50:57;;;;;;;2.38;0.90;;;22.10;54.00;;;;;;6215106;23;20016;-81
2022/05/29 09:53:27;;;;;;;1.60;0.65;;;22.10;54.70;;;;;;6214750;23;20296;-80
2022/05/29 09:56:01;;;;;;;2.10;0.70;;;22.00;54.20;;;;;;6215020;23;19996;-80
2022/05/29 09:58:33;;;;;;;2.10;0.98;;;21.90;54.90;;;;;;6214284;23;20372;-81
2022/05/29 10:01:05;;;;;;;4.07;0.70;;;22.00;56.20;;;;;;6215793;23;20028;-81
2022/05/29 10:03:48;;;;;;;1.10;0.68;;;22.00;56.00;;;;;;6215386;23;20008;-81
2022/05/29 10:06:21;;;;;;;1.55;0.73;;;21.90;55.60;;;;;;6212822;23;20439;-80
2022/05/29 10:08:48;;;;;;;1.05;0.50;;;21.80;55.10;;;;;;6214915;23;20012;-80
2022/05/29 10:11:22;;;;;;;1.17;0.80;;;21.80;55.30;;;;;;6215153;23;20001;-82
2022/05/29 10:13:49;;;;;;;1.00;0.70;;;21.90;55.60;;;;;;6215384;23;20001;-83
2022/05/29 10:16:36;;;;;;;2.35;0.85;;;21.90;55.90;;;;;;6213578;23;20028;-83
2022/05/29 10:19:04;;;;;;;1.40;0.80;;;22.00;55.60;;;;;;6219104;23;20005;-84
2022/05/29 10:21:37;;;;;;;1.88;0.70;;;21.90;56.50;;;;;;6220371;23;20076;-83
2022/05/29 10:24:21;;;;;;;1.85;0.70;;;21.90;55.20;;;;;;6218057;23;20032;-83
2022/05/29 10:26:59;;;;;;;0.95;0.50;;;21.90;56.00;;;;;;6223548;23;20011;-81
2022/05/29 10:29:34;;;;;;;1.23;0.70;;;22.00;56.40;;;;;;6234641;23;19984;-80
2022/05/29 10:32:04;;;;;;;1.05;0.52;;;21.90;55.00;;;;;;6225182;23;20028;-81
2022/05/29 10:34:41;;;;;;;1.50;0.60;;;21.90;55.90;;;;;;6213856;23;20338;-80
2022/05/29 10:37:37;;;;;;;0.80;0.55;;;22.00;55.60;;;;;;6212854;23;20020;-81
2022/05/29 10:40:27;;;;;;;2.42;0.60;;;22.00;56.50;;;;;;6209712;23;20005;-81
2022/05/29 10:43:03;;;;;;;1.20;0.70;;;22.00;55.70;;;;;;6214582;23;20417;-82
2022/05/29 10:45:40;;;;;;;0.68;0.35;;;21.90;55.90;;;;;;6211723;23;20008;-83
2022/05/29 10:48:12;;;;;;;2.15;0.75;;;22.00;56.00;;;;;;6227616;23;20015;-81
2022/05/29 10:51:12;;;;;;;1.08;0.50;;;22.00;56.20;;;;;;6217145;23;20035;-82
2022/05/29 10:53:59;;;;;;;1.85;0.60;;;22.10;56.80;;;;;;6244643;23;20000;-82
2022/05/29 10:56:56;;;;;;;1.33;0.60;;;22.10;56.10;;;;;;6244357;23;20000;-82
2022/05/29 10:59:40;;;;;;;1.25;0.55;;;22.00;56.00;;;;;;6245031;23;20000;-82
2022/05/29 11:05:44;;;;;;;0.93;0.70;;;21.90;55.90;;;;;;6204075;23;20034;-81
2022/05/29 11:08:19;;;;;;;0.55;0.50;;;21.90;56.20;;;;;;6243587;23;20012;-82
2022/05/29 11:11:08;;;;;;;2.60;0.50;;;21.90;56.20;;;;;;6244888;23;20000;-82
2022/05/29 11:14:17;;;;;;;0.75;0.43;;;21.80;56.10;;;;;;6242385;23;19992;-83
2022/05/29 11:17:10;;;;;;;0.75;0.30;;;21.80;55.70;;;;;;6240949;23;19996;-82
2022/05/29 11:19:51;;;;;;;0.47;0.45;;;21.80;56.10;;;;;;6211185;23;20011;-81
2022/05/29 11:22:40;;;;;;;1.52;0.63;;;21.90;56.20;;;;;;6239855;23;19996;-81
2022/05/29 11:25:25;;;;;;;1.67;0.70;;;22.00;56.40;;;;;;6214043;23;20110;-81
2022/05/29 11:28:04;;;;;;;0.95;0.52;;;21.90;55.20;;;;;;6212891;23;20015;-81
2022/05/29 11:30:45;;;;;;;1.08;0.50;;;21.80;56.10;;;;;;6213822;23;20012;-83
2022/05/29 11:33:29;;;;;;;0.98;0.40;;;21.80;56.10;;;;;;6241225;23;20422;-82
2022/05/29 11:36:08;;;;;;;1.38;0.60;;;21.70;55.00;;;;;;6213572;23;20148;-82
2022/05/29 11:39:07;;;;;;;0.93;0.52;;;21.70;56.10;;;;;;6240208;23;20008;-81
2022/05/29 11:42:20;;;;;;;;;;;;;;;;;;;;;
2022/05/29 11:45:03;;;;;;;1.40;0.50;;;21.60;54.90;;;;;;6234951;23;20402;-81
2022/05/29 11:53:34;;;;;;;0.70;0.40;;;21.60;56.20;;;;;;6242394;23;20058;-82
2022/05/29 11:56:12;;;;;;;2.50;0.60;;;21.60;56.20;;;;;;6244699;23;20004;-81
2022/05/29 11:58:55;;;;;;;0.55;0.40;;;21.70;56.40;;;;;;6243415;23;20004;-82
2022/05/29 12:01:30;;;;;;;1.63;0.65;;;21.80;56.50;;;;;;6215973;23;20008;-81
2022/05/29 12:04:25;;;;;;;1.00;0.70;;;21.80;56.50;;;;;;6242961;23;20083;-82
2022/05/29 12:06:56;;;;;;;0.63;0.35;;;21.80;54.40;;;;;;6243029;23;20004;-82
2022/05/29 12:09:37;;;;;;;0.40;0.40;;;21.80;55.10;;;;;;6243533;23;20307;-80
2022/05/29 12:12:19;;;;;;;0.63;0.40;;;21.80;55.30;;;;;;6242644;23;20071;-82
2022/05/29 12:14:52;;;;;;;0.52;0.32;;;21.80;55.50;;;;;;6241456;23;20001;-82
2022/05/29 12:17:25;;;;;;;1.60;0.70;;;21.90;55.70;;;;;;6241891;23;20418;-82
2022/05/29 12:19:57;;;;;;;0.45;0.45;;;21.90;54.60;;;;;;6242670;23;20000;-82
2022/05/29 12:22:28;;;;;;;0.38;0.28;;;21.90;54.50;;;;;;6242921;23;20044;-82
2022/05/29 12:24:57;;;;;;;1.70;0.30;;;21.90;54.70;;;;;;6242568;23;20028;-81
2022/05/29 12:27:27;;;;;;;0.50;0.28;;;22.00;54.50;;;;;;6241997;23;20003;-82
2022/05/29 12:30:04;;;;;;;0.70;0.52;;;22.10;54.40;;;;;;6240794;23;20004;-82
2022/05/29 12:32:32;;;;;;;0.90;0.55;;;22.10;52.60;;;;;;6242276;23;20485;-82
2022/05/29 12:34:58;;;;;;;0.70;0.50;;;22.10;53.50;;;;;;6240084;23;19996;-82
2022/05/29 12:37:56;;;;;;;1.00;0.68;;;22.10;54.00;;;;;;6213495;23;20015;-82
2022/05/29 12:40:59;;;;;;;0.43;0.40;;;22.10;54.70;;;;;;6215586;23;20007;-82
2022/05/29 12:44:02;;;;;;;1.02;0.63;;;22.20;54.40;;;;;;6242580;23;20384;-82
2022/05/29 12:47:02;;;;;;;1.00;0.50;;;22.20;54.20;;;;;;6242488;23;20448;-82
2022/05/29 12:49:59;;;;;;;1.00;0.40;;;22.30;53.80;;;;;;6211834;23;20023;-82
2022/05/29 12:52:33;;;;;;;0.47;0.40;;;22.20;54.20;;;;;;6212088;23;20273;-82
2022/05/29 12:55:15;;;;;;;1.17;0.40;;;22.10;53.70;;;;;;6211998;23;20001;-81
2022/05/29 12:58:12;;;;;;;0.77;0.30;;;22.00;53.70;;;;;;6185682;23;20016;-81
2022/05/29 13:01:01;;;;;;;0.47;0.40;;;22.00;54.40;;;;;;6211674;23;20035;-81
2022/05/29 13:03:45;;;;;;;1.50;0.70;;;22.00;54.40;;;;;;6211354;23;20063;-84
2022/05/29 13:06:44;;;;;;;1.25;0.60;;;22.00;54.60;;;;;;6211016;23;20623;-79
2022/05/29 13:09:31;;;;;;;3.05;0.73;;;21.90;54.50;;;;;;6207380;23;20004;-79
2022/05/29 13:12:21;;;;;;;0.60;0.55;;;21.80;53.40;;;;;;6184782;23;20001;-79
2022/05/29 13:14:53;;;;;;;1.00;0.50;;;21.80;54.60;;;;;;6182763;23;20008;-78
2022/05/29 13:17:25;;;;;;;1.08;0.68;;;21.80;54.70;;;;;;6184704;23;20009;-80
2022/05/29 13:19:57;;;;;;;2.25;0.45;;;21.80;54.70;;;;;;6209999;23;20082;-80
2022/05/29 13:22:57;;;;;;;0.63;0.50;;;21.80;55.00;;;;;;6207633;23;20027;-79
2022/05/29 13:25:37;;;;;;;1.05;0.60;;;21.80;55.20;;;;;;6210392;23;20001;-79
2022/05/29 13:28:46;;;;;;;0.70;0.50;;;21.80;54.90;;;;;;6209496;23;20012;-79
2022/05/29 13:31:17;;;;;;;2.22;0.50;;;21.80;54.70;;;;;;6199476;23;20363;-80
2022/05/29 13:33:43;;;;;;;1.10;0.30;;;21.80;54.70;;;;;;6211152;23;20001;-80
2022/05/29 13:36:09;;;;;;;1.17;0.55;;;21.80;54.70;;;;;;6210993;23;20001;-80
2022/05/29 13:38:44;;;;;;;1.25;0.32;;;21.80;55.00;;;;;;6210173;23;20027;-79
2022/05/29 13:41:30;;;;;;;0.60;0.32;;;21.80;54.60;;;;;;6211511;23;20004;-80
2022/05/29 13:43:57;;;;;;;1.50;0.50;;;21.80;54.60;;;;;;6211524;23;20016;-80
2022/05/29 13:46:27;;;;;;;0.82;0.50;;;21.80;54.50;;;;;;6211833;23;20127;-80
2022/05/29 13:49:25;;;;;;;1.38;0.43;;;21.80;54.40;;;;;;6236010;23;20434;-79
2022/05/29 13:52:06;;;;;;;0.95;0.50;;;21.90;54.60;;;;;;6215251;23;20011;-79
2022/05/29 13:54:32;;;;;;;1.60;0.88;;;21.90;54.40;;;;;;6242523;23;20010;-81
2022/05/29 13:57:01;;;;;;;1.77;0.60;;;21.90;54.60;;;;;;6243550;23;20000;-80
2022/05/29 14:05:42;;;;;;;1.75;0.60;;;21.90;54.90;;;;;;6245099;23;20018;-81
2022/05/29 14:08:17;;;;;;;1.85;0.60;;;21.90;55.10;;;;;;6244137;23;20008;-81